GCGM/GMZ METAR and TAF weather

Enter ICAO airport designator
Station Type Date Time Source
GCGM METAR 2018/12/10 17:00 UTC NOAA

GCGM 101700Z 21003KT 160V290 CAVOK 21/18 Q1023 RMK R09/VRB02KT ARP/23003KT 150V300


Station Type Date Time Source
GCGM Decoded METAR 2018/12/10 17:00 UTC NOAA

Station name not available
Dec 10, 2018 - 12:00 PM EST / 2018.12.10 1700 UTC
Wind: from the SSW (210 degrees) at 3 MPH (3 KT) (direction variable):0
Visibility: greater than 7 mile(s):0
Temperature: 69 F (21 C)
Dew Point: 64 F (18 C)
Relative Humidity: 82%
Pressure (altimeter): 30.21 in. Hg (1023 hPa)
ob: GCGM 101700Z 21003KT 160V290 CAVOK 21/18 Q1023 RMK R09/VRB02KT ARP/23003KT 150V300
cycle: 17

Station Type Date Time Source
GCGM TAF 2018/12/10 15:00 UTC NOAA

TAF GCGM 101400Z 1015/1115 16005KT CAVOK TX22/1114Z TN16/1106Z


Example: see airport list